Terminal Aerodrome Forecast
Issued by NWS Kansas City/Pleasant Hill, MO

Home | Current Version | Previous Version | Text Only | Print | Product List | Glossary On
Versions: 1 2 3 4 5 6 7 8 9 10 11 12 13 14 15 16 17 18 19 20
000
FTUS43 KEAX 151900 AAA
TAFMCI
TAF AMD
KMCI 151955Z 1520/1618 26020G30KT P6SM VCSH OVC015
      TEMPO 1520/1523 4SM -RA OVC006
     FM160000 28015G25KT P6SM BKN025
     FM161200 31015G25KT P6SM SCT050=

USA.gov is the U.S. government's official web portal to all federal, state and local government web resources and services.